AirNav   Textron
 
 993 users online  

9OR1 Shaniko Ranch Airport
Shaniko, Oregon, USA


FAA INFORMATION EFFECTIVE 20 JULY 2017

Location

FAA Identifier: 9OR1
Lat/Long: 45-00-10.4510N / 120-44-23.1570W
45-00.174183N / 120-44.385950W
45.0029031 / -120.7397658
(estimated)
Elevation: 3300 ft. / 1006 m (estimated)
Variation: 18E (1990)
Time zone: UTC -7 (UTC -8 during Standard Time)
Zip code: 97001

Airport Operations

Airport use: Private use. Permission required prior to landing
Activation date: 01/1992
Control tower: no
ARTCC: SEATTLE CENTER
FSS: MC MINNVILLE FLIGHT SERVICE STATION
Attendance: UNATNDD
Wind indicator: yes
Segmented circle: no

Airport Services

Runway Information

Runway 11/29

Dimensions: 3100 x 80 ft. / 945 x 24 m
Surface: turf
RUNWAY 11  RUNWAY 29
Traffic pattern: leftleft

Airport Ownership and Management from official FAA records

Ownership: Privately-owned
Owner: DON WHITAKER
P.O. BOX 40
ROSEBURG, OR 97470
Phone 503-459-4602
Manager: DON WHITAKER
P.O. BOX 40
ROSEBURG, OR 97470
Phone 503-673-0419

Instrument Procedures

There are no published instrument procedures at 9OR1.

Some nearby airports with instrument procedures:

S33 - Madras Municipal Airport (27 nm SW)
KDLS - Columbia Gorge Regional/The Dalles Municipal Airport (41 nm NW)
S39 - Prineville Airport (43 nm S)
KRDM - Roberts Field Airport (48 nm S)
9S9 - Lexington Airport (52 nm NE)
 
Loc | Ops | Rwys | IFR | FBO | Links
Com | Nav | Svcs | Stats | Notes


 
Area around 9OR1 (Shaniko Ranch Airport)
 
Road maps at: MapQuest Bing Google
 
Aerial photo
WARNING: Photo may not be current or correct
Aerial photo of 9OR1 (Shaniko Ranch Airport)
Do you have a better or more recent aerial photo of Shaniko Ranch Airport that you would like to share? If so, please send us your photo.

 
Sectional chart

 
Airport distance calculator
Flying to Shaniko Ranch Airport? Find the distance to fly.

From to 9OR1

Sunrise and sunset
Times for 25-Jul-2017
 Local
(UTC-7)
 Zulu
(UTC)
Morning civil twilight05:0712:07
Sunrise05:4212:42
Sunset20:3703:37
Evening civil twilight21:1204:12

Current date and time
Zulu (UTC)  25-Jul-2017 12:28:19
Local (UTC-7)  25-Jul-2017 05:28:19
 
METAR
KS33 
27nm SW 
251215Z AUTO 12005KT 10SM CLR 12/03 A3002 RMK AO2
KDLS 
41nm NW 
251153Z AUTO VRB03KT 10SM CLR 21/14 A2990 RMK AO2 SLP124 T02060139 10272 20200 51012
KS39 
43nm S 
251215Z AUTO 00000KT 10SM CLR 12/01 A3004 RMK AO2
KRDM 
48nm S 
251156Z 00000KT 10SM CLR 12/00 A3002 RMK AO2 SLP138 7//// T01220000 10239 20122 53004
TAF
KDLS 
41nm NW 
251121Z 2512/2612 31005KT P6SM BKN250 FM251800 32009KT P6SM SCT250
KRDM 
48nm S 
251121Z 2512/2612 VRB03KT P6SM BKN200 FM252100 35010KT P6SM FEW080 BKN200 FM260600 VRB04KT P6SM BKN200
NOTAMs
Click for the latest NOTAMs
NOTAMs are issued by the DoD/FAA and will open in a separate window not controlled by AirNav.

 

 
 

Would you like to see your business listed on this page?

 If your business provides an interesting product or service to pilots, flight crews, aircraft, or users of the Shaniko Ranch Airport, you should consider listing it here.  To start the listing process, click on the button below
 
Add a business
 

Other Pages about Shaniko Ranch Airport

Update a link
 
Copyright © AirNav, LLC. All rights reserved. Privacy Policy  Contact